Archiv-/Tagesdaten

--Timestamp---	Temp	Chill	HIndex	Humid	Dewpt	 Wind 	HiWind	WindDir	Rain 	Barom	Solar	 ET  	 UV 
--------------	----	-----	------	-----	-----	------	------	-------	-----	-----	-----	-----	----
20091115 00:00	7.8	6.1	7.8	91	6.4	10	19	202	0.0	1017.2	0	0.000	0.0
20091115 00:05	7.8	6.1	7.8	91	6.4	10	21	202	0.2	1017.4	0	0.000	0.0
20091115 00:10	7.8	5.6	7.8	90	6.3	13	23	202	0.0	1017.5	0	0.000	0.0
20091115 00:15	7.8	6.1	7.8	90	6.3	10	18	225	0.0	1017.5	0	0.000	0.0
20091115 00:20	7.8	6.1	7.8	90	6.2	10	16	202	0.0	1017.5	0	0.000	0.0
20091115 00:25	7.8	6.1	7.8	91	6.4	10	18	202	0.0	1017.4	0	0.000	0.0
20091115 00:30	7.8	6.4	7.8	91	6.4	8	16	202	0.0	1017.4	0	0.000	0.0
20091115 00:35	7.7	6.3	7.7	91	6.3	8	16	202	0.0	1017.4	0	0.000	0.0
20091115 00:40	7.7	6.3	7.7	91	6.3	8	13	202	0.0	1017.4	0	0.000	0.0
20091115 00:45	7.8	6.8	7.8	91	6.4	6	13	202	0.0	1017.4	0	0.000	0.0
20091115 00:50	7.8	6.8	7.8	91	6.4	6	11	180	0.0	1017.5	0	0.000	0.0
20091115 00:55	7.8	6.8	7.8	91	6.4	6	14	202	0.0	1017.6	0	0.000	0.0
20091115 01:00	7.8	6.4	7.8	91	6.4	8	13	225	0.0	1017.8	0	0.000	0.0
20091115 01:05	7.8	6.4	7.8	91	6.4	8	16	225	0.0	1017.6	0	0.000	0.0
20091115 01:10	7.8	7.8	7.8	91	6.4	5	14	180	0.0	1017.7	0	0.000	0.0
20091115 01:15	7.7	7.7	7.7	91	6.3	5	10	180	0.0	1017.6	0	0.000	0.0
20091115 01:20	7.7	7.7	7.7	91	6.3	5	10	202	0.0	1017.7	0	0.000	0.0
20091115 01:25	7.6	7.6	7.6	90	6.0	5	8	202	0.0	1017.6	0	0.000	0.0
20091115 01:30	7.4	7.4	7.4	91	6.1	5	10	202	0.0	1017.6	0	0.000	0.0
20091115 01:35	7.4	7.4	7.4	91	6.1	5	10	202	0.0	1017.7	0	0.000	0.0
20091115 01:40	7.4	7.4	7.4	91	6.0	5	8	180	0.0	1017.7	0	0.000	0.0
20091115 01:45	7.3	7.3	7.3	91	6.0	5	8	180	0.0	1017.7	0	0.000	0.0
20091115 01:50	7.3	6.3	7.3	91	6.0	6	11	202	0.0	1017.7	0	0.000	0.0
20091115 01:55	7.3	6.3	7.3	91	6.0	6	11	225	0.0	1017.7	0	0.000	0.0
20091115 02:00	7.3	6.2	7.3	91	5.9	6	11	202	0.0	1017.7	0	0.000	0.0
20091115 02:05	7.3	6.3	7.3	91	6.0	6	11	202	0.0	1017.8	0	0.000	0.0
20091115 02:10	7.3	7.3	7.3	91	5.9	5	8	202	0.0	1017.7	0	0.000	0.0
20091115 02:15	7.3	7.3	7.3	91	6.0	5	8	202	0.0	1017.7	0	0.000	0.0
20091115 02:20	7.3	7.3	7.3	91	6.0	2	8	202	0.0	1017.7	0	0.000	0.0
20091115 02:25	7.3	7.3	7.3	91	5.9	2	5	202	0.0	1017.7	0	0.000	0.0
20091115 02:30	7.2	7.2	7.2	91	5.9	2	6	202	0.0	1017.7	0	0.000	0.0
20091115 02:35	7.2	7.2	7.2	91	5.9	2	5	202	0.0	1017.6	0	0.000	0.0
20091115 02:40	7.2	7.2	7.2	91	5.8	3	6	202	0.0	1017.6	0	0.000	0.0
20091115 02:45	7.1	7.1	7.1	91	5.7	2	3	202	0.0	1017.5	0	0.000	0.0
20091115 02:50	7.1	7.1	7.1	91	5.7	3	5	202	0.0	1017.7	0	0.000	0.0
20091115 02:55	7.1	7.1	7.1	91	5.7	2	6	202	0.0	1017.7	0	0.000	0.0
20091115 03:00	7.1	7.1	7.1	91	5.7	3	6	202	0.0	1017.7	0	0.000	0.0
20091115 03:05	7.1	7.1	7.1	91	5.7	3	6	202	0.0	1017.7	0	0.000	0.0
20091115 03:10	7.1	7.1	7.1	91	5.7	3	6	202	0.0	1017.7	0	0.000	0.0
20091115 03:15	7.1	7.1	7.1	91	5.7	5	8	202	0.0	1017.7	0	0.000	0.0
20091115 03:20	7.1	7.1	7.1	91	5.7	5	8	248	0.0	1017.8	0	0.000	0.0
20091115 03:25	7.1	6.0	7.1	91	5.7	6	10	248	0.0	1017.8	0	0.000	0.0
20091115 03:30	7.1	7.1	7.1	90	5.6	5	8	248	0.0	1017.8	0	0.000	0.0
20091115 03:35	7.1	7.1	7.1	90	5.6	5	8	248	0.0	1017.7	0	0.000	0.0
20091115 03:40	7.1	7.1	7.1	90	5.6	5	8	270	0.0	1017.8	0	0.000	0.0
20091115 03:45	7.1	7.1	7.1	89	5.4	5	8	270	0.0	1017.8	0	0.000	0.0
20091115 03:50	7.1	7.1	7.1	89	5.4	5	8	270	0.0	1017.9	0	0.000	0.0
20091115 03:55	7.0	7.0	7.0	89	5.3	5	8	270	0.0	1017.9	0	0.000	0.0
20091115 04:00	6.9	6.9	6.9	89	5.3	5	8	270	0.0	1017.8	0	0.000	0.0
20091115 04:05	6.8	6.8	6.8	88	5.0	5	6	270	0.0	1017.9	0	0.000	0.0
20091115 04:10	6.7	5.5	6.7	88	4.8	6	10	270	0.0	1017.8	0	0.000	0.0
20091115 04:15	6.6	6.6	6.6	89	4.9	5	8	225	0.0	1017.8	0	0.000	0.0
20091115 04:20	6.4	5.3	6.4	89	4.8	6	10	225	0.0	1017.8	0	0.000	0.0
20091115 04:25	6.3	5.1	6.3	89	4.7	6	10	225	0.0	1017.7	0	0.000	0.0
20091115 04:30	6.3	5.1	6.3	90	4.8	6	10	202	0.0	1017.9	0	0.000	0.0
20091115 04:35	6.2	4.9	6.2	90	4.6	6	10	202	0.0	1017.8	0	0.000	0.0
20091115 04:40	6.0	4.8	6.0	90	4.5	6	10	202	0.0	1017.8	0	0.000	0.0
20091115 04:45	5.8	5.8	5.8	90	4.3	3	8	180	0.0	1017.7	0	0.000	0.0
20091115 04:50	5.8	5.8	5.8	90	4.3	5	10	202	0.0	1017.8	0	0.000	0.0
20091115 04:55	5.7	4.0	5.7	90	4.2	8	11	202	0.0	1017.9	0	0.000	0.0
20091115 05:00	5.7	4.4	5.7	91	4.3	6	11	202	0.0	1017.9	0	0.000	0.0
20091115 05:05	5.6	4.3	5.6	91	4.3	6	10	202	0.0	1017.9	0	0.000	0.0
20091115 05:10	5.6	4.2	5.6	91	4.2	6	11	202	0.0	1017.9	0	0.000	0.0
20091115 05:15	5.6	4.3	5.6	91	4.3	6	10	202	0.0	1017.9	0	0.000	0.0
20091115 05:20	5.6	5.6	5.6	91	4.2	3	6	202	0.0	1017.8	0	0.000	0.0
20091115 05:25	5.5	5.5	5.5	91	4.1	3	5	202	0.0	1018.0	0	0.000	0.0
20091115 05:30	5.4	5.4	5.4	91	4.1	2	6	202	0.0	1018.0	0	0.000	0.0
20091115 05:35	5.3	5.3	5.3	90	3.8	3	6	202	0.0	1018.0	0	0.000	0.0
20091115 05:40	5.2	5.2	5.2	91	3.8	3	6	202	0.0	1018.2	0	0.000	0.0
20091115 05:45	5.1	5.1	5.1	91	3.7	0	3	202	0.0	1018.1	0	0.000	0.0
20091115 05:50	5.0	5.0	5.0	91	3.7	2	3	202	0.0	1018.1	0	0.000	0.0
20091115 05:55	4.9	4.9	4.9	91	3.5	0	3	202	0.0	1018.1	0	0.000	0.0
20091115 06:00	4.7	4.7	4.7	90	3.2	0	3	202	0.0	1018.1	0	0.000	0.0
20091115 06:05	4.6	4.6	4.6	91	3.3	3	5	202	0.0	1018.3	0	0.000	0.0
20091115 06:10	4.5	4.5	4.5	91	3.2	3	5	202	0.0	1018.2	0	0.000	0.0
20091115 06:15	4.4	4.4	4.4	91	3.1	3	5	202	0.0	1018.2	0	0.000	0.0
20091115 06:20	4.4	4.4	4.4	91	3.0	3	6	202	0.0	1018.2	0	0.000	0.0
20091115 06:25	4.4	4.4	4.4	91	3.1	3	8	202	0.0	1018.3	0	0.000	0.0
20091115 06:30	4.6	4.6	4.6	92	3.4	3	6	202	0.0	1018.3	0	0.000	0.0
20091115 06:35	4.6	4.6	4.6	91	3.2	3	6	202	0.0	1018.3	0	0.000	0.0
20091115 06:40	4.6	4.6	4.6	91	3.2	3	6	202	0.0	1018.4	0	0.000	0.0
20091115 06:45	4.6	4.6	4.6	91	3.2	3	6	202	0.0	1018.4	0	0.000	0.0
20091115 06:50	4.6	4.6	4.6	91	3.2	3	6	202	0.0	1018.4	0	0.000	0.0
20091115 06:55	4.5	4.5	4.5	91	3.2	3	6	202	0.0	1018.6	0	0.000	0.0
20091115 07:00	4.4	4.4	4.4	91	3.1	2	6	202	0.0	1018.6	0	0.000	0.0
20091115 07:05	4.4	4.4	4.4	91	3.0	2	5	202	0.0	1018.6	0	0.000	0.0
20091115 07:10	4.3	4.3	4.3	91	3.0	2	5	202	0.0	1018.5	0	0.000	0.0
20091115 07:15	4.3	4.3	4.3	91	2.9	2	3	202	0.0	1018.6	0	0.000	0.0
20091115 07:20	4.2	4.2	4.2	91	2.8	2	5	202	0.0	1018.6	0	0.000	0.0
20091115 07:25	4.1	4.1	4.1	91	2.8	2	5	202	0.0	1018.8	0	0.000	0.0
20091115 07:30	4.1	4.1	4.1	91	2.7	0	3	202	0.0	1018.8	0	0.000	0.0
20091115 07:35	4.2	4.2	4.2	91	2.8	2	5	202	0.0	1018.9	6	0.000	0.0
20091115 07:40	4.3	4.3	4.3	91	2.9	3	5	202	0.0	1018.9	9	0.000	0.0
20091115 07:45	4.3	4.3	4.3	91	3.0	3	6	202	0.0	1019.0	9	0.000	0.0
20091115 07:50	4.3	4.3	4.3	91	3.0	3	6	202	0.0	1019.0	9	0.000	0.0
20091115 07:55	4.3	4.3	4.3	91	2.9	5	6	202	0.0	1019.1	11	0.000	0.0
20091115 08:00	4.3	4.3	4.3	91	2.9	5	6	202	0.0	1019.0	13	0.000	0.0
20091115 08:05	4.3	4.3	4.3	91	2.9	5	8	202	0.0	1018.7	17	0.000	0.0
20091115 08:10	4.4	2.9	4.4	91	3.0	6	10	158	0.0	1018.7	25	0.000	0.0
20091115 08:15	4.5	4.5	4.5	91	3.2	5	8	68	0.0	1018.7	32	0.000	0.0
20091115 08:20	4.6	4.6	4.6	91	3.2	5	8	90	0.0	1018.6	40	0.000	0.0
20091115 08:25	4.6	4.6	4.6	90	3.1	3	8	90	0.0	1018.7	45	0.000	0.0
20091115 08:30	4.8	4.8	4.8	90	3.3	3	8	158	0.0	1018.5	48	0.000	0.0
20091115 08:35	4.9	4.9	4.9	90	3.4	5	8	225	0.0	1018.6	52	0.000	0.0
20091115 08:40	5.0	5.0	5.0	90	3.5	3	8	180	0.0	1018.5	53	0.000	0.0
20091115 08:45	5.1	5.1	5.1	90	3.6	3	6	180	0.0	1018.5	45	0.000	0.0
20091115 08:50	5.1	5.1	5.1	90	3.6	3	6	180	0.0	1018.5	50	0.000	0.0
20091115 08:55	5.2	5.2	5.2	90	3.7	3	6	180	0.0	1018.6	50	0.000	0.0
20091115 09:00	5.3	5.3	5.3	90	3.8	5	8	202	0.0	1018.5	57	0.025	0.0
20091115 09:05	5.4	5.4	5.4	90	3.9	5	8	202	0.0	1018.6	69	0.000	0.0
20091115 09:10	5.6	5.6	5.6	90	4.1	5	8	225	0.0	1018.8	71	0.000	0.0
20091115 09:15	5.8	5.8	5.8	90	4.3	5	10	202	0.0	1018.8	81	0.000	0.0
20091115 09:20	5.9	5.9	5.9	89	4.3	3	8	202	0.0	1018.7	70	0.000	0.0
20091115 09:25	6.1	6.1	6.1	89	4.4	3	6	180	0.0	1018.5	60	0.000	0.0
20091115 09:30	6.2	6.2	6.2	89	4.5	3	6	180	0.0	1018.5	60	0.000	0.1
20091115 09:35	6.3	6.3	6.3	89	4.7	5	8	180	0.0	1018.6	92	0.000	0.5
20091115 09:40	6.6	6.6	6.6	89	4.9	3	8	180	0.0	1018.6	101	0.000	0.5
20091115 09:45	6.8	6.8	6.8	89	5.1	5	11	180	0.0	1018.5	90	0.000	0.5
20091115 09:50	7.0	5.9	7.0	89	5.3	6	10	180	0.0	1018.2	95	0.000	0.6
20091115 09:55	7.2	7.2	7.2	88	5.3	5	10	180	0.0	1018.3	116	0.000	0.6
20091115 10:00	7.3	7.3	7.3	88	5.5	2	5	180	0.0	1018.3	131	0.051	0.6
20091115 10:05	7.5	7.5	7.5	88	5.6	5	6	180	0.0	1018.1	120	0.000	0.6
20091115 10:10	7.7	7.7	7.7	88	5.8	3	6	180	0.0	1018.4	127	0.000	0.7
20091115 10:15	7.8	7.8	7.8	88	6.0	5	6	180	0.0	1018.4	117	0.000	0.7
20091115 10:20	8.0	8.0	8.0	87	6.0	2	6	180	0.0	1018.5	121	0.000	0.7
20091115 10:25	8.2	8.2	8.2	88	6.3	3	6	180	0.0	1018.4	155	0.000	0.8
20091115 10:30	8.4	8.4	8.4	87	6.4	2	6	180	0.0	1018.4	149	0.000	0.7
20091115 10:35	8.6	8.6	8.6	87	6.6	5	10	135	0.0	1018.1	158	0.000	0.8
20091115 10:40	8.8	8.8	8.8	86	6.6	5	8	135	0.0	1018.2	160	0.000	0.8
20091115 10:45	9.0	9.0	9.0	86	6.8	3	6	135	0.0	1018.3	201	0.000	0.9
20091115 10:50	9.2	9.2	9.2	86	6.9	3	8	135	0.0	1018.4	157	0.000	0.8
20091115 10:55	9.3	9.3	9.3	86	7.1	3	8	135	0.0	1018.1	172	0.000	0.9
20091115 11:00	9.4	9.4	9.4	86	7.2	3	8	158	0.0	1017.9	175	0.076	0.9
20091115 11:05	9.6	9.6	9.6	85	7.2	3	8	158	0.0	1018.1	141	0.000	0.8
20091115 11:10	9.7	9.7	9.7	85	7.3	3	10	158	0.0	1018.0	151	0.000	0.9
20091115 11:15	9.7	9.7	9.7	85	7.3	2	8	158	0.0	1017.9	147	0.000	0.9
20091115 11:20	9.8	9.8	9.8	85	7.4	3	8	158	0.0	1018.0	139	0.000	0.9
20091115 11:25	9.8	9.8	9.8	85	7.4	3	6	158	0.0	1017.9	134	0.000	0.9
20091115 11:30	9.8	9.8	9.8	84	7.3	3	8	158	0.0	1017.9	152	0.000	0.9
20091115 11:35	9.8	9.8	9.8	85	7.4	5	8	135	0.0	1017.7	169	0.000	1.0
20091115 11:40	9.8	9.8	9.8	85	7.4	3	6	158	0.0	1017.5	204	0.000	1.1
20091115 11:45	9.9	9.9	9.9	84	7.4	5	8	158	0.0	1017.4	191	0.000	1.0
20091115 11:50	10.1	10.1	10.1	84	7.5	5	8	135	0.0	1017.4	218	0.000	1.1
20091115 11:55	10.2	10.2	10.2	84	7.6	5	11	135	0.0	1017.3	270	0.000	1.2
20091115 12:00	10.4	10.4	10.4	82	7.5	6	14	135	0.0	1017.1	285	0.102	1.2
20091115 12:05	10.6	10.6	10.6	80	7.3	6	11	135	0.0	1017.0	278	0.000	1.2
20091115 12:10	10.8	10.8	10.8	78	7.1	5	10	158	0.0	1017.1	225	0.000	1.1
20091115 12:15	10.9	10.9	10.9	79	7.4	3	8	158	0.0	1017.0	236	0.000	1.1
20091115 12:20	11.1	11.1	11.1	78	7.4	5	6	135	0.0	1017.0	191	0.000	1.0
20091115 12:25	11.0	11.0	11.0	76	6.9	5	6	135	0.0	1017.1	147	0.000	0.9
20091115 12:30	10.9	10.9	10.9	77	7.1	5	8	135	0.0	1016.9	161	0.000	1.0
20091115 12:35	10.9	10.9	10.9	77	7.0	5	10	135	0.0	1017.0	158	0.000	0.9
20091115 12:40	10.8	10.8	10.8	78	7.1	3	6	158	0.0	1017.0	145	0.000	0.8
20091115 12:45	10.8	10.8	10.8	78	7.1	5	8	135	0.0	1016.7	130	0.000	0.8
20091115 12:50	10.8	10.8	10.8	79	7.3	5	8	135	0.0	1016.6	124	0.000	0.8
20091115 12:55	10.8	10.8	10.8	79	7.3	3	6	158	0.0	1016.7	117	0.000	0.7
20091115 13:00	10.7	10.7	10.7	79	7.2	5	6	135	0.0	1016.4	114	0.102	0.6
20091115 13:05	10.7	10.7	10.7	80	7.4	2	5	135	0.0	1016.7	108	0.000	0.6
20091115 13:10	10.7	10.7	10.7	80	7.4	3	6	158	0.0	1016.9	98	0.000	0.5
20091115 13:15	10.7	10.7	10.7	81	7.6	0	3	158	0.0	1016.8	108	0.000	0.6
20091115 13:20	10.8	10.8	10.8	81	7.6	2	6	158	0.0	1016.8	108	0.000	0.6
20091115 13:25	10.8	10.8	10.8	80	7.5	2	6	158	0.0	1016.8	124	0.000	0.6
20091115 13:30	10.8	10.8	10.8	80	7.5	3	8	158	0.0	1016.9	138	0.000	0.6
20091115 13:35	10.8	10.8	10.8	79	7.3	5	8	158	0.0	1016.7	125	0.000	0.6
20091115 13:40	10.9	10.9	10.9	79	7.4	2	8	180	0.0	1016.6	114	0.000	0.5
20091115 13:45	10.9	10.9	10.9	78	7.3	5	8	135	0.0	1016.6	106	0.000	0.5
20091115 13:50	10.9	10.9	10.9	78	7.2	3	8	135	0.0	1016.5	105	0.000	0.5
20091115 13:55	10.8	10.8	10.8	78	7.1	3	6	135	0.0	1016.5	95	0.000	0.0
20091115 14:00	10.8	10.8	10.8	79	7.3	2	6	158	0.0	1016.5	76	0.051	0.0
20091115 14:05	10.8	10.8	10.8	80	7.5	2	8	158	0.0	1016.6	62	0.000	0.0
20091115 14:10	10.7	10.7	10.7	80	7.4	5	8	180	0.0	1016.6	41	0.000	0.0
20091115 14:15	10.7	10.7	10.7	81	7.5	3	8	180	0.0	1016.6	26	0.000	0.0
20091115 14:20	10.5	10.5	10.5	82	7.6	3	6	180	0.0	1016.6	21	0.000	0.0
20091115 14:25	10.4	10.4	10.4	82	7.4	2	3	180	0.0	1016.8	21	0.000	0.0
20091115 14:30	10.3	10.3	10.3	83	7.5	2	3	180	0.0	1016.7	37	0.000	0.0
20091115 14:35	10.2	10.2	10.2	84	7.6	2	5	180	0.0	1016.6	42	0.000	0.0
20091115 14:40	10.1	10.1	10.1	84	7.5	5	10	112	0.0	1016.3	43	0.000	0.0
20091115 14:45	9.9	9.9	9.9	84	7.4	3	6	135	0.0	1016.2	44	0.000	0.0
20091115 14:50	9.9	9.9	9.9	85	7.5	3	6	158	0.0	1016.1	43	0.000	0.0
20091115 14:55	9.8	9.8	9.8	85	7.4	3	6	180	0.0	1016.2	54	0.000	0.0
20091115 15:00	9.8	9.8	9.8	85	7.4	3	6	202	0.0	1016.2	66	0.025	0.0
20091115 15:05	9.8	9.2	9.8	84	7.3	6	11	158	0.0	1016.1	63	0.000	0.0
20091115 15:10	9.8	9.1	9.8	84	7.2	6	11	180	0.0	1016.4	50	0.000	0.0
20091115 15:15	9.8	8.7	9.8	84	7.2	8	14	248	0.0	1016.0	37	0.000	0.0
20091115 15:20	9.7	9.0	9.7	84	7.1	6	13	112	0.0	1016.1	41	0.000	0.0
20091115 15:25	9.6	9.6	9.6	84	7.0	2	8	135	0.0	1016.3	32	0.000	0.0
20091115 15:30	9.6	9.6	9.6	84	7.0	3	11	202	0.0	1016.4	33	0.000	0.0
20091115 15:35	9.6	9.6	9.6	84	7.0	5	8	135	0.0	1016.3	41	0.000	0.0
20091115 15:40	9.5	8.8	9.5	83	6.8	6	14	225	0.0	1016.3	46	0.000	0.0
20091115 15:45	9.5	9.5	9.5	83	6.8	3	10	202	0.0	1016.3	37	0.000	0.0
20091115 15:50	9.4	9.4	9.4	83	6.7	5	10	180	0.0	1016.2	30	0.000	0.0
20091115 15:55	9.4	9.4	9.4	83	6.6	5	11	202	0.0	1016.1	23	0.000	0.0
20091115 16:00	9.3	9.3	9.3	83	6.6	3	8	202	0.0	1016.1	18	0.025	0.0
20091115 16:05	9.3	9.3	9.3	83	6.5	5	10	180	0.0	1016.2	11	0.000	0.0
20091115 16:10	9.2	8.5	9.2	83	6.5	6	11	180	0.0	1016.2	8	0.000	0.0
20091115 16:15	9.2	8.5	9.2	83	6.5	6	11	158	0.0	1016.2	4	0.000	0.0
20091115 16:20	9.2	9.2	9.2	83	6.4	5	10	180	0.0	1016.1	0	0.000	0.0
20091115 16:25	9.2	9.2	9.2	83	6.4	5	13	158	0.0	1016.1	0	0.000	0.0
20091115 16:30	9.1	8.3	9.1	83	6.4	6	14	158	0.0	1016.2	0	0.000	0.0
20091115 16:35	9.1	9.1	9.1	83	6.3	5	10	158	0.0	1016.0	0	0.000	0.0
20091115 16:40	9.0	8.2	9.0	84	6.4	6	11	158	0.0	1016.1	0	0.000	0.0
20091115 16:45	8.9	8.2	8.9	84	6.4	6	16	158	0.0	1016.0	0	0.000	0.0
20091115 16:50	8.9	8.2	8.9	84	6.4	6	14	158	0.0	1015.9	0	0.000	0.0
20091115 16:55	8.9	7.7	8.9	84	6.3	8	18	158	0.0	1015.9	0	0.000	0.0
20091115 17:00	8.9	8.9	8.9	84	6.3	5	14	158	0.0	1015.8	0	0.025	0.0
20091115 17:05	8.8	8.0	8.8	84	6.3	6	11	180	0.0	1016.0	0	0.000	0.0
20091115 17:10	8.8	8.8	8.8	84	6.2	5	10	158	0.0	1015.9	0	0.000	0.0
20091115 17:15	8.7	7.9	8.7	84	6.2	6	18	158	0.0	1015.7	0	0.000	0.0
20091115 17:20	8.7	8.7	8.7	84	6.2	5	10	180	0.0	1015.9	0	0.000	0.0
20091115 17:25	8.7	8.7	8.7	83	6.0	5	11	158	0.0	1015.9	0	0.000	0.0
20091115 17:30	8.7	8.7	8.7	83	6.0	5	11	158	0.0	1015.8	0	0.000	0.0
20091115 17:35	8.7	8.7	8.7	84	6.1	5	10	158	0.0	1015.6	0	0.000	0.0
20091115 17:40	8.6	8.6	8.6	84	6.1	5	10	180	0.0	1015.6	0	0.000	0.0
20091115 17:45	8.6	8.6	8.6	84	6.1	3	8	202	0.0	1015.7	0	0.000	0.0
20091115 17:50	8.6	8.6	8.6	84	6.0	5	10	158	0.0	1015.6	0	0.000	0.0
20091115 17:55	8.5	8.5	8.5	84	6.0	5	8	158	0.0	1015.6	0	0.000	0.0
20091115 18:00	8.4	8.4	8.4	84	5.9	3	8	158	0.0	1015.6	0	0.025	0.0
20091115 18:05	8.4	8.4	8.4	84	5.9	3	10	158	0.0	1015.8	0	0.000	0.0
20091115 18:10	8.4	8.4	8.4	84	5.9	3	8	158	0.0	1015.7	0	0.000	0.0
20091115 18:15	8.4	8.4	8.4	84	5.8	5	8	158	0.0	1015.8	0	0.000	0.0
20091115 18:20	8.3	8.3	8.3	84	5.8	3	6	180	0.0	1015.7	0	0.000	0.0
20091115 18:25	8.3	8.3	8.3	84	5.8	2	6	180	0.0	1015.7	0	0.000	0.0
20091115 18:30	8.3	8.3	8.3	84	5.8	5	10	180	0.0	1015.5	0	0.000	0.0
20091115 18:35	8.3	8.3	8.3	84	5.7	5	11	158	0.0	1015.4	0	0.000	0.0
20091115 18:40	8.3	8.3	8.3	84	5.7	3	10	158	0.0	1015.6	0	0.000	0.0
20091115 18:45	8.2	8.2	8.2	84	5.7	5	8	158	0.0	1015.6	0	0.000	0.0
20091115 18:50	8.2	8.2	8.2	85	5.8	3	6	158	0.0	1015.7	0	0.000	0.0
20091115 18:55	8.2	8.2	8.2	85	5.8	2	5	158	0.0	1015.6	0	0.000	0.0
20091115 19:00	8.1	8.1	8.1	85	5.7	2	5	158	0.0	1015.6	0	0.025	0.0
20091115 19:05	8.1	8.1	8.1	85	5.7	3	5	158	0.0	1015.7	0	0.000	0.0
20091115 19:10	8.1	8.1	8.1	85	5.7	3	6	158	0.0	1015.6	0	0.000	0.0
20091115 19:15	8.1	8.1	8.1	85	5.7	3	6	158	0.0	1015.6	0	0.000	0.0
20091115 19:20	8.0	8.0	8.0	85	5.6	3	6	158	0.0	1015.5	0	0.000	0.0
20091115 19:25	8.0	8.0	8.0	85	5.6	5	10	180	0.0	1015.5	0	0.000	0.0
20091115 19:30	8.0	8.0	8.0	85	5.6	3	8	158	0.0	1015.6	0	0.000	0.0
20091115 19:35	8.0	8.0	8.0	85	5.6	3	8	158	0.0	1015.4	0	0.000	0.0
20091115 19:40	8.0	8.0	8.0	85	5.6	2	6	158	0.0	1015.6	0	0.000	0.0
20091115 19:45	7.9	7.9	7.9	85	5.6	2	5	158	0.0	1015.6	0	0.000	0.0
20091115 19:50	7.9	7.9	7.9	85	5.6	2	5	158	0.0	1015.4	0	0.000	0.0
20091115 19:55	7.9	7.9	7.9	85	5.6	3	6	158	0.0	1015.3	0	0.000	0.0
20091115 20:00	7.9	7.9	7.9	85	5.6	5	8	158	0.0	1015.3	0	0.025	0.0
20091115 20:05	7.9	7.9	7.9	85	5.6	5	8	180	0.0	1015.1	0	0.000	0.0
20091115 20:10	8.0	8.0	8.0	85	5.6	5	8	180	0.0	1015.1	0	0.000	0.0
20091115 20:15	8.0	8.0	8.0	85	5.6	5	8	180	0.0	1015.0	0	0.000	0.0
20091115 20:20	8.0	8.0	8.0	85	5.6	5	10	180	0.0	1015.1	0	0.000	0.0
20091115 20:25	8.1	8.1	8.1	85	5.7	3	6	180	0.0	1015.2	0	0.000	0.0
20091115 20:30	8.1	8.1	8.1	85	5.7	3	5	180	0.0	1015.3	0	0.000	0.0
20091115 20:35	8.1	8.1	8.1	85	5.7	3	6	180	0.0	1015.2	0	0.000	0.0
20091115 20:40	8.1	8.1	8.1	85	5.7	5	8	180	0.0	1015.1	0	0.000	0.0
20091115 20:45	8.0	8.0	8.0	85	5.6	3	6	180	0.0	1015.1	0	0.000	0.0
20091115 20:50	8.0	8.0	8.0	85	5.6	3	6	180	0.0	1015.1	0	0.000	0.0
20091115 20:55	8.1	8.1	8.1	85	5.7	5	6	180	0.0	1015.0	0	0.000	0.0
20091115 21:00	8.1	8.1	8.1	85	5.7	5	8	180	0.0	1014.9	0	0.025	0.0
20091115 21:05	8.1	8.1	8.1	85	5.7	3	8	180	0.0	1014.6	0	0.000	0.0
20091115 21:10	8.2	8.2	8.2	85	5.8	3	8	180	0.0	1014.5	0	0.000	0.0
20091115 21:15	8.2	8.2	8.2	85	5.8	5	8	180	0.0	1014.4	0	0.000	0.0
20091115 21:20	8.2	8.2	8.2	84	5.7	3	6	180	0.0	1014.3	0	0.000	0.0
20091115 21:25	8.3	8.3	8.3	84	5.7	3	6	202	0.0	1014.4	0	0.000	0.0
20091115 21:30	8.3	8.3	8.3	84	5.8	5	8	180	0.0	1014.4	0	0.000	0.0
20091115 21:35	8.3	8.3	8.3	84	5.8	5	6	180	0.0	1014.3	0	0.000	0.0
20091115 21:40	8.3	8.3	8.3	84	5.8	5	8	180	0.0	1014.4	0	0.000	0.0
20091115 21:45	8.3	8.3	8.3	84	5.7	5	8	180	0.0	1014.1	0	0.000	0.0
20091115 21:50	8.3	8.3	8.3	84	5.7	5	8	180	0.0	1014.2	0	0.000	0.0
20091115 21:55	8.2	8.2	8.2	85	5.9	3	6	180	0.0	1014.2	0	0.000	0.0
20091115 22:00	8.2	8.2	8.2	85	5.8	5	10	180	0.0	1014.2	0	0.025	0.0
20091115 22:05	8.2	8.2	8.2	85	5.8	5	8	180	0.0	1013.8	0	0.000	0.0
20091115 22:10	8.2	8.2	8.2	85	5.8	5	8	180	0.0	1013.7	0	0.000	0.0
20091115 22:15	8.2	8.2	8.2	85	5.8	5	10	180	0.0	1013.6	0	0.000	0.0
20091115 22:20	8.2	8.2	8.2	84	5.7	5	10	180	0.0	1013.6	0	0.000	0.0
20091115 22:25	8.3	8.3	8.3	84	5.7	5	8	180	0.0	1013.5	0	0.000	0.0
20091115 22:30	8.3	8.3	8.3	84	5.8	3	6	202	0.0	1013.5	0	0.000	0.0
20091115 22:35	8.3	8.3	8.3	84	5.8	5	8	202	0.0	1013.6	0	0.000	0.0
20091115 22:40	8.3	8.3	8.3	84	5.8	5	10	180	0.0	1013.7	0	0.000	0.0
20091115 22:45	8.4	8.4	8.4	84	5.8	3	5	180	0.0	1013.7	0	0.000	0.0
20091115 22:50	8.4	8.4	8.4	83	5.7	5	10	180	0.0	1013.7	0	0.000	0.0
20091115 22:55	8.4	8.4	8.4	84	5.8	5	8	202	0.0	1013.6	0	0.000	0.0
20091115 23:00	8.4	8.4	8.4	84	5.8	5	8	180	0.0	1013.6	0	0.025	0.0
20091115 23:05	8.3	8.3	8.3	84	5.8	3	8	180	0.0	1013.4	0	0.000	0.0
20091115 23:10	8.3	8.3	8.3	85	6.0	2	5	180	0.0	1013.5	0	0.000	0.0
20091115 23:15	8.3	8.3	8.3	85	5.9	3	6	180	0.0	1013.5	0	0.000	0.0
20091115 23:20	8.2	8.2	8.2	85	5.9	3	6	202	0.0	1013.5	0	0.000	0.0
20091115 23:25	8.2	8.2	8.2	85	5.8	2	5	202	0.0	1013.5	0	0.000	0.0
20091115 23:30	8.1	8.1	8.1	86	5.9	2	3	202	0.0	1013.6	0	0.000	0.0
20091115 23:35	8.1	8.1	8.1	86	5.9	3	5	202	0.0	1013.5	0	0.000	0.0
20091115 23:40	8.0	8.0	8.0	86	5.8	0	5	202	0.0	1013.7	0	0.000	0.0
20091115 23:45	7.9	7.9	7.9	86	5.7	2	6	202	0.0	1013.7	0	0.000	0.0
20091115 23:50	7.9	7.9	7.9	87	5.9	2	5	202	0.0	1013.7	0	0.000	0.0
20091115 23:55	7.8	7.8	7.8	87	5.8	2	5	202	0.0	1013.7	0	0.000	0.0



Please note the license to use and transfer of this data:
http://creativecommons.org/licenses/by-nc-sa/3.0/deed.en

Bitte beachten sie die Lizenz zur Verwertung und Weitergabe der Daten:
http://creativecommons.org/licenses/by-nc-sa/3.0/deed.de

zurück zur Übersicht der Archivdaten (Monats und Tagesdaten)

Cookies helfen bei der Bereitstellung von Inhalten. Durch die Nutzung dieser Seiten erklärst du dich damit einverstanden, dass Cookies auf deinem Rechner gespeichert werden. Weitere Information